sensor_id;sensor_type;location;lat;lon;timestamp;P1;durP1;ratioP1;P2;durP2;ratioP2
23782;SDS011;12071;50.850;4.446;2022-07-29T00:01:47;7.93;;;1.73;;
23782;SDS011;12071;50.850;4.446;2022-07-29T00:04:14;5.53;;;1.52;;
23782;SDS011;12071;50.850;4.446;2022-07-29T00:06:40;3.80;;;1.23;;
23782;SDS011;12071;50.850;4.446;2022-07-29T00:09:06;3.03;;;1.30;;
23782;SDS011;12071;50.850;4.446;2022-07-29T00:11:31;4.80;;;1.45;;
23782;SDS011;12071;50.850;4.446;2022-07-29T00:13:57;2.85;;;1.30;;
23782;SDS011;12071;50.850;4.446;2022-07-29T00:16:23;4.05;;;1.30;;
23782;SDS011;12071;50.850;4.446;2022-07-29T00:18:49;3.53;;;1.30;;
23782;SDS011;12071;50.850;4.446;2022-07-29T00:21:14;5.72;;;1.40;;
23782;SDS011;12071;50.850;4.446;2022-07-29T00:23:40;5.18;;;1.40;;
23782;SDS011;12071;50.850;4.446;2022-07-29T00:26:06;2.30;;;1.35;;
23782;SDS011;12071;50.850;4.446;2022-07-29T00:28:32;6.18;;;1.50;;
23782;SDS011;12071;50.850;4.446;2022-07-29T00:30:57;6.65;;;1.58;;
23782;SDS011;12071;50.850;4.446;2022-07-29T00:33:23;5.00;;;1.27;;
23782;SDS011;12071;50.850;4.446;2022-07-29T00:35:49;3.05;;;1.33;;
23782;SDS011;12071;50.850;4.446;2022-07-29T00:38:15;3.33;;;1.15;;
23782;SDS011;12071;50.850;4.446;2022-07-29T00:40:42;5.20;;;1.40;;
23782;SDS011;12071;50.850;4.446;2022-07-29T00:43:09;3.78;;;1.42;;
23782;SDS011;12071;50.850;4.446;2022-07-29T00:45:35;6.40;;;1.67;;
23782;SDS011;12071;50.850;4.446;2022-07-29T00:48:01;3.72;;;1.52;;
23782;SDS011;12071;50.850;4.446;2022-07-29T00:50:28;3.88;;;1.30;;
23782;SDS011;12071;50.850;4.446;2022-07-29T00:52:54;6.60;;;1.52;;
23782;SDS011;12071;50.850;4.446;2022-07-29T00:55:19;3.95;;;1.50;;
23782;SDS011;12071;50.850;4.446;2022-07-29T00:57:46;6.22;;;1.65;;
23782;SDS011;12071;50.850;4.446;2022-07-29T01:00:20;5.78;;;1.58;;
23782;SDS011;12071;50.850;4.446;2022-07-29T01:02:49;4.70;;;1.40;;
23782;SDS011;12071;50.850;4.446;2022-07-29T01:05:22;4.05;;;1.45;;
23782;SDS011;12071;50.850;4.446;2022-07-29T01:07:53;3.97;;;1.60;;
23782;SDS011;12071;50.850;4.446;2022-07-29T01:10:19;3.28;;;1.42;;
23782;SDS011;12071;50.850;4.446;2022-07-29T01:12:46;8.23;;;1.50;;
23782;SDS011;12071;50.850;4.446;2022-07-29T01:15:14;3.28;;;1.30;;
23782;SDS011;12071;50.850;4.446;2022-07-29T01:17:48;7.78;;;1.40;;
23782;SDS011;12071;50.850;4.446;2022-07-29T01:28:52;8.85;;;1.30;;
23782;SDS011;12071;50.850;4.446;2022-07-29T01:31:22;5.30;;;1.60;;
23782;SDS011;12071;50.850;4.446;2022-07-29T01:34:20;4.95;;;1.38;;
23782;SDS011;12071;50.850;4.446;2022-07-29T01:36:55;2.97;;;1.60;;
23782;SDS011;12071;50.850;4.446;2022-07-29T01:39:30;7.68;;;1.80;;
23782;SDS011;12071;50.850;4.446;2022-07-29T01:45:02;4.60;;;1.42;;
23782;SDS011;12071;50.850;4.446;2022-07-29T01:47:39;2.08;;;1.30;;
23782;SDS011;12071;50.850;4.446;2022-07-29T01:50:18;6.15;;;1.52;;
23782;SDS011;12071;50.850;4.446;2022-07-29T01:55:35;2.92;;;1.40;;
23782;SDS011;12071;50.850;4.446;2022-07-29T01:58:04;2.85;;;1.40;;
23782;SDS011;12071;50.850;4.446;2022-07-29T02:00:32;5.28;;;1.50;;
23782;SDS011;12071;50.850;4.446;2022-07-29T02:02:59;6.15;;;1.50;;
23782;SDS011;12071;50.850;4.446;2022-07-29T02:05:28;4.05;;;1.20;;
23782;SDS011;12071;50.850;4.446;2022-07-29T02:07:57;3.05;;;1.30;;
23782;SDS011;12071;50.850;4.446;2022-07-29T02:10:26;3.25;;;1.65;;
23782;SDS011;12071;50.850;4.446;2022-07-29T02:12:54;3.65;;;1.48;;
23782;SDS011;12071;50.850;4.446;2022-07-29T02:15:24;3.47;;;1.50;;
23782;SDS011;12071;50.850;4.446;2022-07-29T02:17:56;6.72;;;1.63;;
23782;SDS011;12071;50.850;4.446;2022-07-29T02:20:26;5.50;;;1.40;;
23782;SDS011;12071;50.850;4.446;2022-07-29T02:22:52;5.97;;;1.90;;
23782;SDS011;12071;50.850;4.446;2022-07-29T02:25:20;6.82;;;1.50;;
23782;SDS011;12071;50.850;4.446;2022-07-29T02:27:49;3.70;;;1.60;;
23782;SDS011;12071;50.850;4.446;2022-07-29T02:30:16;4.25;;;1.60;;
23782;SDS011;12071;50.850;4.446;2022-07-29T02:32:43;7.18;;;1.60;;
23782;SDS011;12071;50.850;4.446;2022-07-29T02:35:12;4.00;;;1.50;;
23782;SDS011;12071;50.850;4.446;2022-07-29T02:37:39;4.43;;;1.58;;
23782;SDS011;12071;50.850;4.446;2022-07-29T02:40:07;4.63;;;1.52;;
23782;SDS011;12071;50.850;4.446;2022-07-29T02:42:36;6.43;;;1.85;;
23782;SDS011;12071;50.850;4.446;2022-07-29T02:45:04;3.03;;;1.52;;
23782;SDS011;12071;50.850;4.446;2022-07-29T02:47:32;4.03;;;1.60;;
23782;SDS011;12071;50.850;4.446;2022-07-29T02:50:06;3.47;;;1.67;;
23782;SDS011;12071;50.850;4.446;2022-07-29T02:52:44;7.15;;;1.80;;
23782;SDS011;12071;50.850;4.446;2022-07-29T02:58:08;4.72;;;1.38;;
23782;SDS011;12071;50.850;4.446;2022-07-29T03:01:20;3.45;;;1.70;;
23782;SDS011;12071;50.850;4.446;2022-07-29T03:03:51;3.88;;;1.70;;
23782;SDS011;12071;50.850;4.446;2022-07-29T03:06:19;2.58;;;1.70;;
23782;SDS011;12071;50.850;4.446;2022-07-29T03:08:47;5.32;;;1.73;;
23782;SDS011;12071;50.850;4.446;2022-07-29T03:11:14;4.32;;;1.80;;
23782;SDS011;12071;50.850;4.446;2022-07-29T03:13:41;4.05;;;1.80;;
23782;SDS011;12071;50.850;4.446;2022-07-29T03:16:07;4.10;;;1.90;;
23782;SDS011;12071;50.850;4.446;2022-07-29T03:18:33;5.15;;;2.00;;
23782;SDS011;12071;50.850;4.446;2022-07-29T03:21:00;4.53;;;1.70;;
23782;SDS011;12071;50.850;4.446;2022-07-29T03:23:26;6.05;;;2.10;;
23782;SDS011;12071;50.850;4.446;2022-07-29T03:25:53;4.63;;;2.00;;
23782;SDS011;12071;50.850;4.446;2022-07-29T03:28:19;3.60;;;2.05;;
23782;SDS011;12071;50.850;4.446;2022-07-29T03:30:45;5.85;;;1.85;;
23782;SDS011;12071;50.850;4.446;2022-07-29T03:33:11;3.28;;;1.77;;
23782;SDS011;12071;50.850;4.446;2022-07-29T03:35:36;5.85;;;1.77;;
23782;SDS011;12071;50.850;4.446;2022-07-29T03:38:02;4.35;;;1.73;;
23782;SDS011;12071;50.850;4.446;2022-07-29T03:41:02;3.60;;;1.75;;
23782;SDS011;12071;50.850;4.446;2022-07-29T03:43:23;5.82;;;2.15;;
23782;SDS011;12071;50.850;4.446;2022-07-29T03:45:52;4.07;;;1.60;;
23782;SDS011;12071;50.850;4.446;2022-07-29T03:48:20;5.57;;;1.67;;
23782;SDS011;12071;50.850;4.446;2022-07-29T03:50:50;7.57;;;2.35;;
23782;SDS011;12071;50.850;4.446;2022-07-29T03:53:16;6.88;;;2.08;;
23782;SDS011;12071;50.850;4.446;2022-07-29T03:55:45;4.13;;;2.13;;
23782;SDS011;12071;50.850;4.446;2022-07-29T03:58:16;8.23;;;2.00;;
23782;SDS011;12071;50.850;4.446;2022-07-29T04:00:43;6.38;;;2.25;;
23782;SDS011;12071;50.850;4.446;2022-07-29T04:03:09;4.13;;;2.40;;
23782;SDS011;12071;50.850;4.446;2022-07-29T04:05:36;5.20;;;2.22;;
23782;SDS011;12071;50.850;4.446;2022-07-29T04:08:01;4.38;;;1.90;;
23782;SDS011;12071;50.850;4.446;2022-07-29T04:10:27;6.20;;;1.75;;
23782;SDS011;12071;50.850;4.446;2022-07-29T04:12:52;4.97;;;2.25;;
23782;SDS011;12071;50.850;4.446;2022-07-29T04:15:18;4.90;;;2.15;;
23782;SDS011;12071;50.850;4.446;2022-07-29T04:17:44;2.78;;;1.75;;
23782;SDS011;12071;50.850;4.446;2022-07-29T04:20:10;8.57;;;2.20;;
23782;SDS011;12071;50.850;4.446;2022-07-29T04:22:38;3.90;;;2.20;;
23782;SDS011;12071;50.850;4.446;2022-07-29T04:25:04;4.78;;;1.83;;
23782;SDS011;12071;50.850;4.446;2022-07-29T04:27:30;3.05;;;1.80;;
23782;SDS011;12071;50.850;4.446;2022-07-29T04:29:55;8.07;;;2.47;;
23782;SDS011;12071;50.850;4.446;2022-07-29T04:32:21;5.72;;;2.40;;
23782;SDS011;12071;50.850;4.446;2022-07-29T04:34:47;3.08;;;1.92;;
23782;SDS011;12071;50.850;4.446;2022-07-29T04:37:12;4.90;;;2.40;;
23782;SDS011;12071;50.850;4.446;2022-07-29T04:39:38;6.63;;;2.30;;
23782;SDS011;12071;50.850;4.446;2022-07-29T04:42:04;5.95;;;2.50;;
23782;SDS011;12071;50.850;4.446;2022-07-29T04:44:29;3.72;;;2.30;;
23782;SDS011;12071;50.850;4.446;2022-07-29T04:46:55;4.28;;;2.58;;
23782;SDS011;12071;50.850;4.446;2022-07-29T04:49:22;3.85;;;2.58;;
23782;SDS011;12071;50.850;4.446;2022-07-29T04:51:48;6.75;;;3.17;;
23782;SDS011;12071;50.850;4.446;2022-07-29T04:54:13;5.88;;;3.90;;
23782;SDS011;12071;50.850;4.446;2022-07-29T04:56:39;5.80;;;2.42;;
23782;SDS011;12071;50.850;4.446;2022-07-29T04:59:04;5.15;;;2.38;;
23782;SDS011;12071;50.850;4.446;2022-07-29T05:01:30;5.30;;;2.10;;
23782;SDS011;12071;50.850;4.446;2022-07-29T05:03:56;5.32;;;2.45;;
23782;SDS011;12071;50.850;4.446;2022-07-29T05:06:21;5.90;;;2.60;;
23782;SDS011;12071;50.850;4.446;2022-07-29T05:08:47;4.53;;;2.67;;
23782;SDS011;12071;50.850;4.446;2022-07-29T05:11:12;8.43;;;2.72;;
23782;SDS011;12071;50.850;4.446;2022-07-29T05:13:38;4.32;;;2.45;;
23782;SDS011;12071;50.850;4.446;2022-07-29T05:16:04;6.65;;;2.97;;
23782;SDS011;12071;50.850;4.446;2022-07-29T05:18:30;5.68;;;2.90;;
23782;SDS011;12071;50.850;4.446;2022-07-29T05:20:55;9.00;;;3.55;;
23782;SDS011;12071;50.850;4.446;2022-07-29T05:23:22;7.20;;;3.42;;
23782;SDS011;12071;50.850;4.446;2022-07-29T05:25:48;6.53;;;3.13;;
23782;SDS011;12071;50.850;4.446;2022-07-29T05:28:15;5.57;;;3.15;;
23782;SDS011;12071;50.850;4.446;2022-07-29T05:30:41;4.65;;;3.22;;
23782;SDS011;12071;50.850;4.446;2022-07-29T05:33:07;7.25;;;3.33;;
23782;SDS011;12071;50.850;4.446;2022-07-29T05:35:32;8.18;;;3.22;;
23782;SDS011;12071;50.850;4.446;2022-07-29T05:37:59;5.18;;;2.72;;
23782;SDS011;12071;50.850;4.446;2022-07-29T05:40:25;5.22;;;3.05;;
23782;SDS011;12071;50.850;4.446;2022-07-29T05:42:51;5.68;;;2.70;;
23782;SDS011;12071;50.850;4.446;2022-07-29T05:45:19;7.85;;;3.30;;
23782;SDS011;12071;50.850;4.446;2022-07-29T05:47:45;5.75;;;3.13;;
23782;SDS011;12071;50.850;4.446;2022-07-29T05:50:11;8.05;;;2.95;;
23782;SDS011;12071;50.850;4.446;2022-07-29T05:52:37;8.02;;;3.40;;
23782;SDS011;12071;50.850;4.446;2022-07-29T05:55:03;6.50;;;3.22;;
23782;SDS011;12071;50.850;4.446;2022-07-29T05:57:30;7.78;;;3.45;;
23782;SDS011;12071;50.850;4.446;2022-07-29T05:59:56;9.98;;;3.65;;
23782;SDS011;12071;50.850;4.446;2022-07-29T06:02:22;8.23;;;3.85;;
23782;SDS011;12071;50.850;4.446;2022-07-29T06:04:47;5.88;;;3.50;;
23782;SDS011;12071;50.850;4.446;2022-07-29T06:07:14;6.88;;;3.60;;
23782;SDS011;12071;50.850;4.446;2022-07-29T06:09:41;6.45;;;3.13;;
23782;SDS011;12071;50.850;4.446;2022-07-29T06:12:07;12.93;;;4.13;;
23782;SDS011;12071;50.850;4.446;2022-07-29T06:14:33;5.45;;;3.28;;
23782;SDS011;12071;50.850;4.446;2022-07-29T06:16:58;5.80;;;3.47;;
23782;SDS011;12071;50.850;4.446;2022-07-29T06:19:24;7.97;;;3.40;;
23782;SDS011;12071;50.850;4.446;2022-07-29T06:21:50;5.63;;;3.33;;
23782;SDS011;12071;50.850;4.446;2022-07-29T06:24:16;6.47;;;4.03;;
23782;SDS011;12071;50.850;4.446;2022-07-29T06:26:42;4.65;;;3.55;;
23782;SDS011;12071;50.850;4.446;2022-07-29T06:29:08;10.13;;;3.90;;
23782;SDS011;12071;50.850;4.446;2022-07-29T06:31:35;6.55;;;4.00;;
23782;SDS011;12071;50.850;4.446;2022-07-29T06:34:01;7.68;;;4.03;;
23782;SDS011;12071;50.850;4.446;2022-07-29T06:36:27;6.18;;;3.58;;
23782;SDS011;12071;50.850;4.446;2022-07-29T06:38:52;10.45;;;3.47;;
23782;SDS011;12071;50.850;4.446;2022-07-29T06:41:18;7.63;;;3.70;;
23782;SDS011;12071;50.850;4.446;2022-07-29T06:43:44;7.82;;;3.97;;
23782;SDS011;12071;50.850;4.446;2022-07-29T06:46:11;4.85;;;3.83;;
23782;SDS011;12071;50.850;4.446;2022-07-29T06:48:39;10.13;;;3.97;;
23782;SDS011;12071;50.850;4.446;2022-07-29T06:51:07;4.72;;;3.55;;
23782;SDS011;12071;50.850;4.446;2022-07-29T06:53:33;7.82;;;3.78;;
23782;SDS011;12071;50.850;4.446;2022-07-29T06:56:01;6.70;;;3.85;;
23782;SDS011;12071;50.850;4.446;2022-07-29T06:58:27;5.07;;;3.88;;
23782;SDS011;12071;50.850;4.446;2022-07-29T07:00:54;6.63;;;3.97;;
23782;SDS011;12071;50.850;4.446;2022-07-29T07:03:20;5.75;;;4.07;;
23782;SDS011;12071;50.850;4.446;2022-07-29T07:05:46;9.13;;;3.90;;
23782;SDS011;12071;50.850;4.446;2022-07-29T07:08:12;6.85;;;4.30;;
23782;SDS011;12071;50.850;4.446;2022-07-29T07:10:38;12.90;;;4.70;;
23782;SDS011;12071;50.850;4.446;2022-07-29T07:13:04;8.13;;;4.03;;
23782;SDS011;12071;50.850;4.446;2022-07-29T07:15:30;8.60;;;4.47;;
23782;SDS011;12071;50.850;4.446;2022-07-29T07:17:57;6.40;;;3.42;;
23782;SDS011;12071;50.850;4.446;2022-07-29T07:20:22;4.72;;;3.67;;
23782;SDS011;12071;50.850;4.446;2022-07-29T07:22:49;6.88;;;4.18;;
23782;SDS011;12071;50.850;4.446;2022-07-29T07:25:15;7.97;;;4.22;;
23782;SDS011;12071;50.850;4.446;2022-07-29T07:27:42;5.18;;;3.58;;
23782;SDS011;12071;50.850;4.446;2022-07-29T07:30:08;5.93;;;4.20;;
23782;SDS011;12071;50.850;4.446;2022-07-29T07:32:34;7.85;;;4.00;;
23782;SDS011;12071;50.850;4.446;2022-07-29T07:35:01;6.20;;;4.13;;
23782;SDS011;12071;50.850;4.446;2022-07-29T07:37:27;10.27;;;4.20;;
23782;SDS011;12071;50.850;4.446;2022-07-29T07:39:53;7.47;;;4.07;;
23782;SDS011;12071;50.850;4.446;2022-07-29T07:42:19;7.28;;;3.83;;
23782;SDS011;12071;50.850;4.446;2022-07-29T07:44:45;7.22;;;3.58;;
23782;SDS011;12071;50.850;4.446;2022-07-29T07:47:11;10.00;;;4.03;;
23782;SDS011;12071;50.850;4.446;2022-07-29T07:49:37;6.25;;;3.97;;
23782;SDS011;12071;50.850;4.446;2022-07-29T07:52:03;5.00;;;3.70;;
23782;SDS011;12071;50.850;4.446;2022-07-29T07:54:29;6.82;;;4.03;;
23782;SDS011;12071;50.850;4.446;2022-07-29T07:56:55;6.88;;;4.50;;
23782;SDS011;12071;50.850;4.446;2022-07-29T07:59:21;6.22;;;4.00;;
23782;SDS011;12071;50.850;4.446;2022-07-29T08:01:47;7.15;;;4.30;;
23782;SDS011;12071;50.850;4.446;2022-07-29T08:04:13;7.40;;;3.80;;
23782;SDS011;12071;50.850;4.446;2022-07-29T08:06:38;8.63;;;4.10;;
23782;SDS011;12071;50.850;4.446;2022-07-29T08:09:04;6.00;;;3.33;;
23782;SDS011;12071;50.850;4.446;2022-07-29T08:11:30;6.50;;;4.13;;
23782;SDS011;12071;50.850;4.446;2022-07-29T08:13:56;9.45;;;3.95;;
23782;SDS011;12071;50.850;4.446;2022-07-29T08:16:22;8.48;;;4.10;;
23782;SDS011;12071;50.850;4.446;2022-07-29T08:18:50;6.50;;;3.72;;
23782;SDS011;12071;50.850;4.446;2022-07-29T08:21:16;10.98;;;3.63;;
23782;SDS011;12071;50.850;4.446;2022-07-29T08:23:45;11.52;;;3.95;;
23782;SDS011;12071;50.850;4.446;2022-07-29T08:26:13;5.97;;;3.25;;
23782;SDS011;12071;50.850;4.446;2022-07-29T08:28:40;5.57;;;3.42;;
23782;SDS011;12071;50.850;4.446;2022-07-29T08:31:09;9.77;;;3.58;;
23782;SDS011;12071;50.850;4.446;2022-07-29T08:33:35;6.63;;;3.47;;
23782;SDS011;12071;50.850;4.446;2022-07-29T08:36:00;5.60;;;3.33;;
23782;SDS011;12071;50.850;4.446;2022-07-29T08:38:26;12.15;;;3.42;;
23782;SDS011;12071;50.850;4.446;2022-07-29T08:40:52;7.25;;;3.00;;
23782;SDS011;12071;50.850;4.446;2022-07-29T08:43:19;10.20;;;3.42;;
23782;SDS011;12071;50.850;4.446;2022-07-29T08:45:45;10.30;;;3.20;;
23782;SDS011;12071;50.850;4.446;2022-07-29T08:48:13;6.18;;;3.00;;
23782;SDS011;12071;50.850;4.446;2022-07-29T08:50:43;7.85;;;2.78;;
23782;SDS011;12071;50.850;4.446;2022-07-29T08:53:14;3.67;;;2.25;;
23782;SDS011;12071;50.850;4.446;2022-07-29T08:55:45;8.02;;;2.55;;
23782;SDS011;12071;50.850;4.446;2022-07-29T08:58:11;4.32;;;2.45;;
23782;SDS011;12071;50.850;4.446;2022-07-29T09:00:43;8.07;;;2.60;;
23782;SDS011;12071;50.850;4.446;2022-07-29T09:03:12;7.40;;;2.55;;
23782;SDS011;12071;50.850;4.446;2022-07-29T09:05:42;2.75;;;1.95;;
23782;SDS011;12071;50.850;4.446;2022-07-29T09:08:10;4.22;;;1.88;;
23782;SDS011;12071;50.850;4.446;2022-07-29T09:10:37;5.22;;;1.85;;
23782;SDS011;12071;50.850;4.446;2022-07-29T09:13:03;7.40;;;2.28;;
23782;SDS011;12071;50.850;4.446;2022-07-29T09:15:29;3.92;;;1.90;;
23782;SDS011;12071;50.850;4.446;2022-07-29T09:17:54;2.17;;;1.90;;
23782;SDS011;12071;50.850;4.446;2022-07-29T09:20:21;4.65;;;1.30;;
23782;SDS011;12071;50.850;4.446;2022-07-29T09:22:48;3.55;;;1.77;;
23782;SDS011;12071;50.850;4.446;2022-07-29T09:25:36;3.30;;;1.50;;
23782;SDS011;12071;50.850;4.446;2022-07-29T09:28:07;3.97;;;1.73;;
23782;SDS011;12071;50.850;4.446;2022-07-29T09:30:35;9.38;;;2.10;;
23782;SDS011;12071;50.850;4.446;2022-07-29T09:33:14;4.60;;;1.83;;
23782;SDS011;12071;50.850;4.446;2022-07-29T09:35:40;3.75;;;1.40;;
23782;SDS011;12071;50.850;4.446;2022-07-29T09:38:12;5.20;;;2.00;;
23782;SDS011;12071;50.850;4.446;2022-07-29T09:40:38;4.65;;;1.50;;
23782;SDS011;12071;50.850;4.446;2022-07-29T09:43:10;3.15;;;1.45;;
23782;SDS011;12071;50.850;4.446;2022-07-29T09:45:38;5.18;;;1.80;;
23782;SDS011;12071;50.850;4.446;2022-07-29T09:50:46;4.93;;;1.75;;
23782;SDS011;12071;50.850;4.446;2022-07-29T09:56:01;4.50;;;1.40;;
23782;SDS011;12071;50.850;4.446;2022-07-29T09:58:27;4.80;;;1.40;;
23782;SDS011;12071;50.850;4.446;2022-07-29T10:00:53;7.93;;;1.80;;
23782;SDS011;12071;50.850;4.446;2022-07-29T10:03:21;4.25;;;1.52;;
23782;SDS011;12071;50.850;4.446;2022-07-29T10:06:03;4.63;;;1.35;;
23782;SDS011;12071;50.850;4.446;2022-07-29T10:08:30;6.18;;;1.65;;
23782;SDS011;12071;50.850;4.446;2022-07-29T10:11:08;5.88;;;1.52;;
23782;SDS011;12071;50.850;4.446;2022-07-29T10:13:44;9.95;;;1.20;;
23782;SDS011;12071;50.850;4.446;2022-07-29T10:16:13;3.33;;;1.65;;
23782;SDS011;12071;50.850;4.446;2022-07-29T10:18:40;5.15;;;1.60;;
23782;SDS011;12071;50.850;4.446;2022-07-29T10:21:07;4.25;;;1.40;;
23782;SDS011;12071;50.850;4.446;2022-07-29T10:23:33;8.13;;;2.28;;
23782;SDS011;12071;50.850;4.446;2022-07-29T10:25:59;8.93;;;1.88;;
23782;SDS011;12071;50.850;4.446;2022-07-29T10:28:25;4.10;;;1.45;;
23782;SDS011;12071;50.850;4.446;2022-07-29T10:30:51;4.18;;;1.75;;
23782;SDS011;12071;50.850;4.446;2022-07-29T10:33:30;3.88;;;1.55;;
23782;SDS011;12071;50.850;4.446;2022-07-29T10:42:23;3.75;;;1.52;;
23782;SDS011;12071;50.850;4.446;2022-07-29T10:44:50;3.00;;;1.63;;
23782;SDS011;12071;50.850;4.446;2022-07-29T10:49:59;3.95;;;1.63;;
23782;SDS011;12071;50.850;4.446;2022-07-29T10:55:36;4.85;;;1.77;;
23782;SDS011;12071;50.850;4.446;2022-07-29T11:00:43;5.00;;;1.90;;
23782;SDS011;12071;50.850;4.446;2022-07-29T11:03:09;3.10;;;1.40;;
23782;SDS011;12071;50.850;4.446;2022-07-29T11:06:05;4.47;;;1.85;;
23782;SDS011;12071;50.850;4.446;2022-07-29T11:08:31;4.28;;;1.70;;
23782;SDS011;12071;50.850;4.446;2022-07-29T11:16:11;5.25;;;1.67;;
23782;SDS011;12071;50.850;4.446;2022-07-29T11:21:38;6.25;;;1.85;;
23782;SDS011;12071;50.850;4.446;2022-07-29T11:24:12;3.30;;;1.75;;
23782;SDS011;12071;50.850;4.446;2022-07-29T11:26:38;4.93;;;1.80;;
23782;SDS011;12071;50.850;4.446;2022-07-29T11:29:05;5.45;;;1.90;;
23782;SDS011;12071;50.850;4.446;2022-07-29T11:31:43;7.72;;;2.20;;
23782;SDS011;12071;50.850;4.446;2022-07-29T11:39:44;3.30;;;1.67;;
23782;SDS011;12071;50.850;4.446;2022-07-29T11:47:39;3.33;;;1.73;;
23782;SDS011;12071;50.850;4.446;2022-07-29T11:50:11;3.85;;;2.00;;
23782;SDS011;12071;50.850;4.446;2022-07-29T11:57:45;4.13;;;1.85;;
23782;SDS011;12071;50.850;4.446;2022-07-29T12:02:54;6.75;;;1.90;;
23782;SDS011;12071;50.850;4.446;2022-07-29T12:05:29;3.45;;;1.92;;
23782;SDS011;12071;50.850;4.446;2022-07-29T12:08:18;7.18;;;2.20;;
23782;SDS011;12071;50.850;4.446;2022-07-29T12:10:47;9.32;;;3.05;;
23782;SDS011;12071;50.850;4.446;2022-07-29T12:13:15;7.75;;;2.70;;
23782;SDS011;12071;50.850;4.446;2022-07-29T12:18:18;8.55;;;3.13;;
23782;SDS011;12071;50.850;4.446;2022-07-29T12:20:45;5.20;;;3.47;;
23782;SDS011;12071;50.850;4.446;2022-07-29T12:23:13;9.27;;;3.00;;
23782;SDS011;12071;50.850;4.446;2022-07-29T12:25:40;6.95;;;3.50;;
23782;SDS011;12071;50.850;4.446;2022-07-29T12:28:09;4.57;;;3.17;;
23782;SDS011;12071;50.850;4.446;2022-07-29T12:30:47;6.83;;;2.60;;
23782;SDS011;12071;50.850;4.446;2022-07-29T12:33:24;6.07;;;3.10;;
23782;SDS011;12071;50.850;4.446;2022-07-29T12:36:00;6.07;;;3.33;;
23782;SDS011;12071;50.850;4.446;2022-07-29T12:38:26;5.85;;;2.92;;
23782;SDS011;12071;50.850;4.446;2022-07-29T12:40:53;9.77;;;3.90;;
23782;SDS011;12071;50.850;4.446;2022-07-29T12:43:23;5.60;;;2.78;;
23782;SDS011;12071;50.850;4.446;2022-07-29T12:45:50;12.38;;;2.90;;
23782;SDS011;12071;50.850;4.446;2022-07-29T12:48:31;5.25;;;2.63;;
23782;SDS011;12071;50.850;4.446;2022-07-29T12:51:01;7.78;;;3.17;;
23782;SDS011;12071;50.850;4.446;2022-07-29T12:53:29;7.35;;;3.22;;
23782;SDS011;12071;50.850;4.446;2022-07-29T12:55:55;5.72;;;2.10;;
23782;SDS011;12071;50.850;4.446;2022-07-29T12:58:26;6.40;;;2.60;;
23782;SDS011;12071;50.850;4.446;2022-07-29T13:01:18;4.55;;;2.58;;
23782;SDS011;12071;50.850;4.446;2022-07-29T13:09:00;5.90;;;2.30;;
23782;SDS011;12071;50.850;4.446;2022-07-29T13:11:39;8.60;;;2.78;;
23782;SDS011;12071;50.850;4.446;2022-07-29T13:14:07;9.68;;;3.20;;
23782;SDS011;12071;50.850;4.446;2022-07-29T13:19:40;9.88;;;2.85;;
23782;SDS011;12071;50.850;4.446;2022-07-29T13:22:11;5.80;;;2.40;;
23782;SDS011;12071;50.850;4.446;2022-07-29T13:27:15;4.40;;;2.20;;
23782;SDS011;12071;50.850;4.446;2022-07-29T13:29:42;9.30;;;2.45;;
23782;SDS011;12071;50.850;4.446;2022-07-29T13:32:07;4.10;;;2.30;;
23782;SDS011;12071;50.850;4.446;2022-07-29T13:34:34;6.53;;;2.10;;
23782;SDS011;12071;50.850;4.446;2022-07-29T13:37:00;10.73;;;2.30;;
23782;SDS011;12071;50.850;4.446;2022-07-29T13:39:27;6.75;;;2.13;;
23782;SDS011;12071;50.850;4.446;2022-07-29T13:41:53;6.75;;;2.42;;
23782;SDS011;12071;50.850;4.446;2022-07-29T13:44:19;4.95;;;1.98;;
23782;SDS011;12071;50.850;4.446;2022-07-29T13:46:44;4.15;;;1.80;;
23782;SDS011;12071;50.850;4.446;2022-07-29T13:49:10;4.75;;;1.80;;
23782;SDS011;12071;50.850;4.446;2022-07-29T13:51:36;6.82;;;1.88;;
23782;SDS011;12071;50.850;4.446;2022-07-29T13:54:02;8.15;;;2.22;;
23782;SDS011;12071;50.850;4.446;2022-07-29T13:56:28;4.70;;;1.88;;
23782;SDS011;12071;50.850;4.446;2022-07-29T13:58:53;5.95;;;2.10;;
23782;SDS011;12071;50.850;4.446;2022-07-29T14:01:19;5.68;;;1.73;;
23782;SDS011;12071;50.850;4.446;2022-07-29T14:03:45;5.13;;;1.90;;
23782;SDS011;12071;50.850;4.446;2022-07-29T14:06:10;3.47;;;2.00;;
23782;SDS011;12071;50.850;4.446;2022-07-29T14:08:36;7.85;;;2.17;;
23782;SDS011;12071;50.850;4.446;2022-07-29T14:11:01;5.63;;;2.03;;
23782;SDS011;12071;50.850;4.446;2022-07-29T14:13:27;2.85;;;1.75;;
23782;SDS011;12071;50.850;4.446;2022-07-29T14:15:53;6.47;;;1.92;;
23782;SDS011;12071;50.850;4.446;2022-07-29T14:18:18;5.18;;;1.80;;
23782;SDS011;12071;50.850;4.446;2022-07-29T14:20:44;6.40;;;1.75;;
23782;SDS011;12071;50.850;4.446;2022-07-29T14:23:10;3.13;;;1.75;;
23782;SDS011;12071;50.850;4.446;2022-07-29T14:25:35;8.85;;;1.90;;
23782;SDS011;12071;50.850;4.446;2022-07-29T14:28:01;3.25;;;1.83;;
23782;SDS011;12071;50.850;4.446;2022-07-29T14:30:26;3.70;;;1.65;;
23782;SDS011;12071;50.850;4.446;2022-07-29T14:32:52;7.35;;;1.65;;
23782;SDS011;12071;50.850;4.446;2022-07-29T14:35:17;4.28;;;1.90;;
23782;SDS011;12071;50.850;4.446;2022-07-29T14:37:43;4.15;;;1.70;;
23782;SDS011;12071;50.850;4.446;2022-07-29T14:40:09;4.57;;;1.70;;
23782;SDS011;12071;50.850;4.446;2022-07-29T14:42:35;3.80;;;1.60;;
23782;SDS011;12071;50.850;4.446;2022-07-29T14:45:03;7.35;;;1.80;;
23782;SDS011;12071;50.850;4.446;2022-07-29T14:47:32;4.85;;;1.60;;
23782;SDS011;12071;50.850;4.446;2022-07-29T14:49:57;4.00;;;1.52;;
23782;SDS011;12071;50.850;4.446;2022-07-29T14:52:23;4.82;;;1.60;;
23782;SDS011;12071;50.850;4.446;2022-07-29T14:54:48;5.82;;;1.52;;
23782;SDS011;12071;50.850;4.446;2022-07-29T14:57:14;4.13;;;1.60;;
23782;SDS011;12071;50.850;4.446;2022-07-29T14:59:40;1.30;;;1.20;;
23782;SDS011;12071;50.850;4.446;2022-07-29T15:02:05;2.42;;;1.30;;
23782;SDS011;12071;50.850;4.446;2022-07-29T15:04:31;4.68;;;1.45;;
23782;SDS011;12071;50.850;4.446;2022-07-29T15:06:57;2.60;;;1.77;;
23782;SDS011;12071;50.850;4.446;2022-07-29T15:09:22;3.67;;;1.67;;
23782;SDS011;12071;50.850;4.446;2022-07-29T15:11:48;7.15;;;1.40;;
23782;SDS011;12071;50.850;4.446;2022-07-29T15:14:14;2.63;;;1.38;;
23782;SDS011;12071;50.850;4.446;2022-07-29T15:16:40;6.45;;;1.52;;
23782;SDS011;12071;50.850;4.446;2022-07-29T15:19:07;3.97;;;1.27;;
23782;SDS011;12071;50.850;4.446;2022-07-29T15:21:33;3.78;;;1.40;;
23782;SDS011;12071;50.850;4.446;2022-07-29T15:23:59;4.28;;;1.70;;
23782;SDS011;12071;50.850;4.446;2022-07-29T15:26:25;3.50;;;1.42;;
23782;SDS011;12071;50.850;4.446;2022-07-29T15:28:51;5.15;;;1.55;;
23782;SDS011;12071;50.850;4.446;2022-07-29T15:31:17;4.50;;;1.60;;
23782;SDS011;12071;50.850;4.446;2022-07-29T15:33:43;3.75;;;1.55;;
23782;SDS011;12071;50.850;4.446;2022-07-29T15:36:10;2.72;;;1.80;;
23782;SDS011;12071;50.850;4.446;2022-07-29T15:38:37;4.47;;;2.20;;
23782;SDS011;12071;50.850;4.446;2022-07-29T15:41:05;7.78;;;2.10;;
23782;SDS011;12071;50.850;4.446;2022-07-29T15:43:33;5.15;;;2.00;;
23782;SDS011;12071;50.850;4.446;2022-07-29T15:46:00;4.10;;;2.20;;
23782;SDS011;12071;50.850;4.446;2022-07-29T15:48:45;5.80;;;2.25;;
23782;SDS011;12071;50.850;4.446;2022-07-29T15:51:10;7.47;;;2.33;;
23782;SDS011;12071;50.850;4.446;2022-07-29T15:53:36;5.93;;;2.30;;
23782;SDS011;12071;50.850;4.446;2022-07-29T15:56:02;4.72;;;2.40;;
23782;SDS011;12071;50.850;4.446;2022-07-29T15:58:28;4.78;;;2.38;;
23782;SDS011;12071;50.850;4.446;2022-07-29T16:00:54;7.80;;;3.00;;
23782;SDS011;12071;50.850;4.446;2022-07-29T16:03:20;2.78;;;1.80;;
23782;SDS011;12071;50.850;4.446;2022-07-29T16:05:46;7.55;;;2.22;;
23782;SDS011;12071;50.850;4.446;2022-07-29T16:08:12;6.30;;;2.30;;
23782;SDS011;12071;50.850;4.446;2022-07-29T16:10:38;4.70;;;2.45;;